createdAt,value
2017-12-26T08:11:19.235Z,102.60
2017-12-26T08:13:49.390Z,106.67
2017-12-26T08:16:18.917Z,104.33
2017-12-26T08:18:48.576Z,108.53
2017-12-26T08:21:16.607Z,98.80
2017-12-26T08:23:44.560Z,107.23
2017-12-26T08:26:12.470Z,100.27
2017-12-26T08:28:40.278Z,100.17
2017-12-26T08:31:08.154Z,105.93
2017-12-26T08:33:36.042Z,100.57
2017-12-26T08:36:05.566Z,94.43
2017-12-26T08:38:33.636Z,92.83
2017-12-26T08:41:01.588Z,110.83
2017-12-26T08:43:29.590Z,101.10
2017-12-26T08:45:58.220Z,98.07
2017-12-26T08:48:26.415Z,100.60
2017-12-26T08:50:54.363Z,89.40
2017-12-26T08:56:17.570Z,97.73
2017-12-26T08:58:45.718Z,94.37
2017-12-26T09:01:16.311Z,103.10
2017-12-26T09:03:45.107Z,92.83
2017-12-26T09:06:13.203Z,101.50
2017-12-26T09:08:48.235Z,97.87
2017-12-26T09:11:16.181Z,101.47
2017-12-26T09:13:44.018Z,109.90
2017-12-26T09:16:12.078Z,107.50
2017-12-26T09:18:40.854Z,107.67
2017-12-26T09:21:09.607Z,100.53
2017-12-26T09:23:37.554Z,102.03
2017-12-26T09:26:05.402Z,106.67
2017-12-26T09:28:34.048Z,99.40
2017-12-26T09:31:02.762Z,104.50
2017-12-26T09:33:31.565Z,101.37
2017-12-26T09:36:02.544Z,114.37
2017-12-26T09:39:04.391Z,125.53
2017-12-26T09:41:32.350Z,125.00
2017-12-26T09:44:01.151Z,106.47
2017-12-26T09:46:29.070Z,110.07
2017-12-26T09:48:56.899Z,116.53
2017-12-26T09:51:25.542Z,123.50
2017-12-26T09:53:53.401Z,113.63
2017-12-26T09:56:21.201Z,108.33
2017-12-26T09:58:49.126Z,117.10
2017-12-26T10:01:16.921Z,109.93
2017-12-26T10:03:44.710Z,108.43
2017-12-26T10:06:13.311Z,109.23
2017-12-26T10:08:41.091Z,108.90
2017-12-26T10:11:08.855Z,110.87
2017-12-26T10:13:36.797Z,105.83
2017-12-26T10:16:05.350Z,109.00
2017-12-26T10:18:33.210Z,109.97
2017-12-26T10:21:01.046Z,114.57
2017-12-26T10:23:28.861Z,130.67
2017-12-26T10:25:57.681Z,128.80
2017-12-26T10:28:25.517Z,127.47
2017-12-26T10:30:53.328Z,120.63
2017-12-26T10:33:21.190Z,135.77
2017-12-26T10:35:49.283Z,122.83
2017-12-26T10:38:17.229Z,130.17
2017-12-26T10:40:45.062Z,142.53
2017-12-26T10:43:13.595Z,135.93
2017-12-26T10:45:41.409Z,128.90
2017-12-26T10:48:09.986Z,133.43
2017-12-26T10:50:38.645Z,136.73
2017-12-26T10:53:06.461Z,139.27
2017-12-26T10:55:35.043Z,141.53
2017-12-26T10:58:02.935Z,136.10
2017-12-26T11:00:31.120Z,136.97
2017-12-26T11:02:59.279Z,133.00
2017-12-26T11:05:27.120Z,133.43
2017-12-26T11:07:55.693Z,124.80
2017-12-26T11:10:25.124Z,131.43
2017-12-26T11:12:53.060Z,136.40
2017-12-26T11:15:21.618Z,136.53
2017-12-26T11:17:49.569Z,128.60
2017-12-26T11:20:17.351Z,138.70
2017-12-26T11:22:45.263Z,130.33
2017-12-26T11:25:13.072Z,133.13
2017-12-26T11:27:40.910Z,133.70
2017-12-26T11:30:08.830Z,128.50
2017-12-26T11:32:36.866Z,134.30
2017-12-26T11:35:04.818Z,139.63
2017-12-26T11:37:32.663Z,132.37
2017-12-26T11:40:00.531Z,133.17
2017-12-26T11:42:28.419Z,136.60
2017-12-26T11:44:56.234Z,130.30
2017-12-26T11:47:24.089Z,137.53
2017-12-26T11:49:51.967Z,130.67
2017-12-26T12:05:27.605Z,136.57
2017-12-26T12:07:55.398Z,138.63
2017-12-26T12:10:23.163Z,138.37
2017-12-26T12:12:50.977Z,136.43
2017-12-26T12:15:18.726Z,151.07
2017-12-26T12:17:46.545Z,148.37
2017-12-26T12:20:15.112Z,143.77
2017-12-26T12:22:42.973Z,142.27
2017-12-26T12:25:10.793Z,148.40
2017-12-26T12:27:38.724Z,133.70
2017-12-26T12:30:07.863Z,139.77
2017-12-26T12:32:35.657Z,129.17
2017-12-26T12:35:03.442Z,135.87
2017-12-26T12:37:32.077Z,137.10
2017-12-26T12:40:03.273Z,134.40
2017-12-26T12:42:31.824Z,133.53
2017-12-26T12:45:00.034Z,126.27
2017-12-26T12:47:28.775Z,131.30
2017-12-26T12:49:56.648Z,129.47
2017-12-26T12:52:24.489Z,143.37
2017-12-26T12:54:52.327Z,126.93
2017-12-26T12:57:20.858Z,142.13
2017-12-26T12:59:48.704Z,137.57
2017-12-26T13:02:16.543Z,135.83
2017-12-26T13:07:22.686Z,132.07
2017-12-26T13:09:50.511Z,135.17
2017-12-26T13:12:18.299Z,130.20
2017-12-26T13:14:46.232Z,132.17
2017-12-26T13:17:14.298Z,132.30
2017-12-26T13:19:42.486Z,129.73
2017-12-26T13:22:10.342Z,127.97
2017-12-26T13:24:39.277Z,129.70
2017-12-26T13:27:07.241Z,131.17
2017-12-26T13:29:36.571Z,133.30
2017-12-26T13:32:06.253Z,134.80
2017-12-26T13:34:34.086Z,133.17
2017-12-26T13:37:01.969Z,138.80
2017-12-26T13:39:29.850Z,131.13
2017-12-26T13:41:57.757Z,145.20
2017-12-26T13:44:28.704Z,149.00
2017-12-26T13:46:56.553Z,128.77
2017-12-26T13:49:26.143Z,134.00
2017-12-26T13:51:54.988Z,136.83
2017-12-26T13:54:22.962Z,136.77
2017-12-26T13:56:51.681Z,146.40
2017-12-26T13:59:19.629Z,137.03
2017-12-26T14:01:47.715Z,143.20
2017-12-26T14:04:15.807Z,148.60
2017-12-26T14:06:44.526Z,138.33
2017-12-26T14:09:15.838Z,140.63
2017-12-26T14:11:44.464Z,133.27
2017-12-26T14:14:12.487Z,139.67
2017-12-26T14:16:43.003Z,138.93
2017-12-26T14:19:10.888Z,140.67
2017-12-26T14:21:38.807Z,151.93
2017-12-26T14:24:06.676Z,135.93
2017-12-26T14:26:34.659Z,139.00
2017-12-26T14:29:02.874Z,135.80
2017-12-26T14:31:30.711Z,139.60
2017-12-26T14:33:59.470Z,140.13
2017-12-26T14:36:27.291Z,138.67
2017-12-26T14:38:55.160Z,137.30
2017-12-26T14:41:23.068Z,140.03
2017-12-26T14:43:50.974Z,142.83
2017-12-26T14:46:18.827Z,151.87
2017-12-26T14:48:46.790Z,146.47
2017-12-26T14:51:14.684Z,145.73
2017-12-26T14:53:43.499Z,143.00
2017-12-26T14:56:12.139Z,146.60
2017-12-26T14:58:39.999Z,149.87
2017-12-26T15:01:07.824Z,143.90
2017-12-26T15:03:36.436Z,132.23
2017-12-26T15:06:04.356Z,151.07
2017-12-26T15:08:33.059Z,152.77
2017-12-26T15:11:01.674Z,141.57
2017-12-26T15:13:29.509Z,155.97
2017-12-26T15:15:58.029Z,148.20
2017-12-26T15:18:25.936Z,154.57
2017-12-26T15:20:53.899Z,136.80
2017-12-26T15:23:22.448Z,150.57
2017-12-26T15:25:50.217Z,148.27
2017-12-26T15:28:17.972Z,144.67
2017-12-26T15:30:45.893Z,147.17
2017-12-26T15:33:13.758Z,154.73
2017-12-26T15:35:41.531Z,147.73
2017-12-26T15:38:10.284Z,145.80
2017-12-26T15:40:38.161Z,143.03
2017-12-26T15:43:05.963Z,145.47
2017-12-26T15:45:33.791Z,144.93
2017-12-26T15:48:01.661Z,146.73
2017-12-26T15:50:29.530Z,148.63
2017-12-26T15:52:57.303Z,138.10
2017-12-26T15:55:25.893Z,140.70
2017-12-26T15:57:53.693Z,143.63
2017-12-26T16:00:21.462Z,132.80
2017-12-26T16:02:50.003Z,133.67
2017-12-26T16:05:18.705Z,140.33
2017-12-26T16:07:46.573Z,138.23
2017-12-26T16:10:14.326Z,139.23
2017-12-26T16:12:42.945Z,136.47
2017-12-26T16:15:10.780Z,140.90
2017-12-26T16:17:39.445Z,137.00
2017-12-26T16:20:07.236Z,155.27
2017-12-26T16:22:35.041Z,135.87
2017-12-26T16:25:02.804Z,147.50
2017-12-26T16:27:30.569Z,142.27
2017-12-26T16:29:58.337Z,133.37
2017-12-26T16:32:26.114Z,139.60
2017-12-26T16:34:53.896Z,146.50
2017-12-26T16:37:21.662Z,138.00
2017-12-26T16:39:49.534Z,145.47
2017-12-26T16:42:18.134Z,151.03
2017-12-26T16:44:46.706Z,141.70
2017-12-26T16:47:15.286Z,131.90
2017-12-26T16:49:43.899Z,139.13
2017-12-26T16:52:11.761Z,144.07
2017-12-26T16:54:39.655Z,146.53
2017-12-26T16:57:07.500Z,134.90
2017-12-26T16:59:35.264Z,146.10
2017-12-26T17:02:03.045Z,145.00
2017-12-26T17:04:30.880Z,138.23
2017-12-26T17:06:59.495Z,154.20
2017-12-26T17:09:27.450Z,139.97
2017-12-26T17:11:55.417Z,143.33
2017-12-26T17:14:23.280Z,148.13
2017-12-26T17:16:51.155Z,139.17
2017-12-26T17:19:18.999Z,143.27
2017-12-26T17:21:46.837Z,138.43
2017-12-26T17:24:14.772Z,144.27
2017-12-26T17:26:42.590Z,158.53
2017-12-26T17:29:11.277Z,150.57
2017-12-26T17:31:39.863Z,151.50
2017-12-26T17:34:07.758Z,159.53
2017-12-26T17:36:35.640Z,151.30
2017-12-26T17:39:03.544Z,139.40
2017-12-26T17:41:31.309Z,133.57
2017-12-26T17:43:59.171Z,133.23
2017-12-26T17:46:26.998Z,125.00
2017-12-26T17:48:54.874Z,138.67
2017-12-26T17:51:22.906Z,141.80
2017-12-26T17:53:51.488Z,135.17
2017-12-26T17:56:19.267Z,148.10
2017-12-26T17:58:47.106Z,151.40
2017-12-26T18:01:15.753Z,145.87
2017-12-26T18:03:43.581Z,119.73
2017-12-26T18:06:11.442Z,134.73
2017-12-26T18:08:39.272Z,121.47
2017-12-26T18:11:07.107Z,131.57
2017-12-26T18:13:34.952Z,119.37
2017-12-26T18:16:02.815Z,128.23
2017-12-26T18:18:30.742Z,115.40
2017-12-26T18:20:59.370Z,114.90
2017-12-26T18:23:27.126Z,121.67
2017-12-26T18:25:54.936Z,115.00
2017-12-26T18:28:22.806Z,117.17
2017-12-26T18:30:50.663Z,112.60
2017-12-26T18:33:18.472Z,121.97
2017-12-26T18:35:46.305Z,116.90
2017-12-26T18:38:14.160Z,120.23
2017-12-26T18:40:41.969Z,116.57
2017-12-26T18:43:09.779Z,123.90
2017-12-26T18:45:37.692Z,111.60
2017-12-26T18:48:06.251Z,112.73
2017-12-26T18:50:34.100Z,116.10
2017-12-26T18:53:02.171Z,102.50
2017-12-26T18:55:30.129Z,109.33
2017-12-26T18:57:57.962Z,104.73
2017-12-26T19:00:25.760Z,103.20
2017-12-26T19:02:54.344Z,103.17
2017-12-26T19:05:22.299Z,111.97
2017-12-26T19:07:50.146Z,109.30
2017-12-26T19:10:17.940Z,103.47
2017-12-26T19:12:45.910Z,102.47
2017-12-26T19:15:13.740Z,102.03
2017-12-26T19:17:41.641Z,104.20
2017-12-26T19:20:09.620Z,100.50
2017-12-26T19:22:38.912Z,97.80
2017-12-26T19:25:06.885Z,97.73
2017-12-26T19:27:34.753Z,97.13
2017-12-26T19:30:02.548Z,98.53
2017-12-26T19:32:31.305Z,103.17
2017-12-26T19:34:59.149Z,108.07
2017-12-26T19:37:26.966Z,102.10
2017-12-26T19:39:55.579Z,101.03
2017-12-26T19:42:23.478Z,110.37
2017-12-26T19:44:51.420Z,90.90
2017-12-26T19:47:19.243Z,103.43
2017-12-26T19:49:47.881Z,99.10
2017-12-26T19:52:15.720Z,96.33
2017-12-26T19:54:43.637Z,100.03
2017-12-26T19:57:11.439Z,93.10
2017-12-26T19:59:40.039Z,88.80
2017-12-26T20:02:07.928Z,94.30
2017-12-26T20:04:37.445Z,96.57
2017-12-26T20:07:05.560Z,93.60
2017-12-26T20:09:34.361Z,93.37
2017-12-26T20:12:02.348Z,91.33
2017-12-26T20:14:30.190Z,93.47
2017-12-26T20:16:59.731Z,91.73
2017-12-26T20:19:27.643Z,97.67
2017-12-26T20:21:55.463Z,98.07
2017-12-26T20:24:23.327Z,89.57
2017-12-26T20:26:51.123Z,102.27
2017-12-26T20:29:20.502Z,97.57
2017-12-26T20:31:48.602Z,96.27
2017-12-26T20:34:16.963Z,99.90
2017-12-26T20:36:45.181Z,93.37
2017-12-26T20:39:13.514Z,96.13
2017-12-26T20:41:41.766Z,93.13
2017-12-26T20:44:09.653Z,95.13
2017-12-26T20:46:37.470Z,95.83
2017-12-26T20:49:06.132Z,101.87
2017-12-26T20:51:34.798Z,95.57
2017-12-26T20:54:02.852Z,100.40
2017-12-26T20:56:31.590Z,103.50
2017-12-26T20:59:00.261Z,106.70
2017-12-26T21:01:28.321Z,100.73
2017-12-26T21:03:56.261Z,103.73
2017-12-26T21:06:24.240Z,107.27
2017-12-26T21:08:52.836Z,100.73
2017-12-26T21:11:20.926Z,103.50
2017-12-26T21:13:49.970Z,85.93
2017-12-26T21:16:18.363Z,105.70
2017-12-26T21:18:46.133Z,100.47
2017-12-26T21:21:14.046Z,105.37
2017-12-26T21:23:41.823Z,105.00
2017-12-26T21:26:10.524Z,120.63
2017-12-26T21:28:38.376Z,103.53
2017-12-26T21:31:06.950Z,106.57
